Thomas, New Mexico
Current Conditions -  °F | °C
As of 11:55 AM on Thursday 25 Dec 2014 (Local Time) from KCAO Reporting Station
Clear Clear  
Wind Chill: 54°   Ceiling: Unl
Heat Index: 54°   Visibility: 10mi
Dew Point: 18°   Wind: 20mph
Humidity: 24%   Direction: 230°SW
Pressure: 29.55"   Gusts: NA
Location:  36.2639°N, 103.376°W
Report Text: KCAO 251855Z AUTO 23017KT 10SM CLR 12/M08 A2955 RMK AO2 PK WND 21026/1807 SLP986 T01221078
Loading
Personal Weather Stations






























Interactive Weather Map New forecast layout! Learn more

10-Day Weather Forecast

Advertisements
Track Severe Weather on mobile